首页
METAR-TAF:

METAR-TAF

机场 :

策尔特韦格, 奥地利

纬度: 47-12N, 经度: 014-45E, 海拔: 677米

当前天气观测

该预报发布于23分钟前的04:50 UTC
风速1节,风向
温度 11°C
湿度 76%
气压 1017 hPa

METAR: LOXZ 170450Z 36001KT 30KM FEW300CI 11/07 Q1017 NOSIG

时间: 07:13 (05:13 UTC)

预报

该预报发布于17小时和58分钟前的11:15 UTC
预报有效从16日的 12点(UTC)到 16日的 21点(UTC)
风速8节,风向
能见度10公里或以上
少量云层高于6000英尺
散云层高于7000英尺
成为
从 16日的 17点(UTC)到 16日的 19点(UTC)
风速3节,风向多变
少量云层高于6000英尺

TAF: LOXZ 161115Z 1612/1621 09008KT 9999 FEW060 SCT070 BECMG 1617/1619 VRB03KT FEW060

超过4000个机场的气象观测和天气预报(METAR&TAF报告)。

可查询的气象台以黄色和红色小点在地图上表示。

将鼠标移到小点上方,可查看气象台名称。

然后点击查看天气观测和预报。

如需切换地图:点击带黑十字的绿色按钮放大地图;点击带横线的绿色按钮缩小地图;或者点击绿色箭头查看邻近地区的地图。


METAR-TAF: